createdAt,value
2019-02-23T00:01:17.115Z,225.47
2019-02-23T00:03:47.062Z,219.13
2019-02-23T00:06:17.034Z,225.80
2019-02-23T00:08:47.054Z,211.80
2019-02-23T00:11:17.003Z,214.93
2019-02-23T00:13:47.074Z,209.63
2019-02-23T00:16:17.082Z,197.53
2019-02-23T00:18:47.065Z,200.77
2019-02-23T00:21:17.141Z,198.27
2019-02-23T00:23:47.039Z,200.13
2019-02-23T00:26:17.042Z,196.83
2019-02-23T00:28:47.032Z,193.97
2019-02-23T00:31:17.031Z,190.60
2019-02-23T00:33:46.937Z,192.07
2019-02-23T00:36:17.881Z,184.30
2019-02-23T00:38:47.894Z,186.67
2019-02-23T00:41:17.818Z,184.23
2019-02-23T00:43:47.870Z,185.47
2019-02-23T00:46:17.773Z,177.30
2019-02-23T00:48:47.723Z,180.57
2019-02-23T00:51:17.819Z,172.60
2019-02-23T00:53:47.781Z,172.93
2019-02-23T00:56:17.818Z,169.50
2019-02-23T00:58:47.842Z,172.27
2019-02-23T01:01:17.741Z,166.67
2019-02-23T01:03:47.732Z,164.20
2019-02-23T01:06:17.750Z,164.77
2019-02-23T01:08:47.743Z,165.00
2019-02-23T01:11:17.761Z,159.30
2019-02-23T01:13:48.704Z,152.97
2019-02-23T01:16:18.646Z,150.80
2019-02-23T01:18:48.653Z,155.93
2019-02-23T01:21:18.602Z,150.47
2019-02-23T01:23:48.592Z,153.57
2019-02-23T01:26:18.546Z,145.73
2019-02-23T01:28:48.509Z,140.87
2019-02-23T01:31:18.416Z,140.70
2019-02-23T01:33:48.461Z,141.70
2019-02-23T01:36:18.441Z,144.70
2019-02-23T01:38:48.534Z,138.27
2019-02-23T01:41:18.494Z,140.60
2019-02-23T01:43:48.458Z,133.03
2019-02-23T01:46:18.434Z,136.60
2019-02-23T01:48:48.458Z,133.13
2019-02-23T01:51:18.846Z,132.97
2019-02-23T01:53:48.727Z,129.70
2019-02-23T01:56:18.710Z,131.70
2019-02-23T01:58:48.737Z,130.23
2019-02-23T02:01:18.681Z,128.93
2019-02-23T02:03:48.650Z,128.33
2019-02-23T02:06:18.634Z,128.03
2019-02-23T02:08:48.757Z,124.47
2019-02-23T02:11:22.513Z,123.13
2019-02-23T02:13:52.466Z,119.73
2019-02-23T02:16:22.509Z,118.33
2019-02-23T02:18:52.473Z,117.57
2019-02-23T02:21:22.413Z,115.00
2019-02-23T02:23:52.367Z,114.93
2019-02-23T02:26:22.255Z,116.93
2019-02-23T02:28:52.237Z,115.53
2019-02-23T02:31:22.210Z,109.83
2019-02-23T02:34:08.945Z,111.43
2019-02-23T02:36:38.986Z,108.83
2019-02-23T02:39:17.950Z,114.13
2019-02-23T02:41:47.923Z,105.67
2019-02-23T02:44:17.883Z,103.90
2019-02-23T02:46:47.790Z,105.13
2019-02-23T02:49:17.743Z,102.67
2019-02-23T02:51:47.722Z,102.23
2019-02-23T02:54:17.760Z,101.93
2019-02-23T02:56:47.767Z,95.63
2019-02-23T02:59:17.714Z,98.03
2019-02-23T03:01:47.703Z,95.17
2019-02-23T03:04:17.670Z,95.70
2019-02-23T03:06:47.617Z,96.47
2019-02-23T03:09:18.593Z,94.27
2019-02-23T03:11:48.591Z,94.90
2019-02-23T03:14:18.512Z,90.70
2019-02-23T03:16:49.458Z,93.57
2019-02-23T03:19:19.434Z,92.33
2019-02-23T03:21:49.406Z,88.87
2019-02-23T03:24:19.277Z,88.37
2019-02-23T03:26:49.270Z,87.53
2019-02-23T03:29:19.250Z,86.80
2019-02-23T03:31:50.384Z,88.77
2019-02-23T03:34:20.396Z,85.33
2019-02-23T03:36:50.495Z,81.13
2019-02-23T03:39:20.453Z,81.77
2019-02-23T03:41:50.387Z,80.97
2019-02-23T03:44:20.366Z,78.63
2019-02-23T03:46:52.896Z,77.83
2019-02-23T03:49:22.945Z,79.03
2019-02-23T03:51:53.045Z,76.00
2019-02-23T03:54:23.004Z,74.20
2019-02-23T03:56:53.006Z,73.10
2019-02-23T03:59:23.003Z,76.20
2019-02-23T04:01:53.103Z,77.30
2019-02-23T04:04:23.003Z,76.47
2019-02-23T04:06:53.076Z,76.30
2019-02-23T04:09:23.026Z,73.00
2019-02-23T04:11:53.082Z,71.77
2019-02-23T04:14:23.055Z,71.23
2019-02-23T04:16:52.974Z,69.10
2019-02-23T04:19:22.927Z,68.43
2019-02-23T04:21:52.810Z,72.33
2019-02-23T04:24:22.765Z,66.80
2019-02-23T04:26:52.775Z,68.77
2019-02-23T04:29:22.779Z,67.70
2019-02-23T04:31:52.684Z,62.67
2019-02-23T04:34:22.721Z,64.63
2019-02-23T04:36:52.729Z,64.37
2019-02-23T04:39:22.690Z,61.87
2019-02-23T04:41:52.574Z,65.13
2019-02-23T04:44:22.609Z,62.53
2019-02-23T04:46:52.672Z,65.53
2019-02-23T04:49:25.878Z,62.57
2019-02-23T04:51:55.285Z,61.07
2019-02-23T04:54:25.183Z,60.10
2019-02-23T04:56:55.221Z,60.63
2019-02-23T04:59:25.249Z,61.60
2019-02-23T05:01:55.225Z,58.43
2019-02-23T05:04:25.234Z,59.40
2019-02-23T05:06:55.245Z,57.87
2019-02-23T05:09:25.134Z,55.87
2019-02-23T05:11:55.350Z,55.97
2019-02-23T05:14:25.358Z,58.80
2019-02-23T05:16:55.294Z,55.97
2019-02-23T05:19:25.286Z,57.73
2019-02-23T05:21:55.330Z,53.40
2019-02-23T05:24:25.289Z,55.90
2019-02-23T05:26:55.304Z,55.17
2019-02-23T05:29:25.305Z,54.70
2019-02-23T05:31:55.227Z,55.13
2019-02-23T05:34:25.273Z,52.47
2019-02-23T05:36:55.258Z,51.93
2019-02-23T05:39:25.274Z,51.80
2019-02-23T05:41:55.297Z,52.40
2019-02-23T05:44:25.393Z,51.87
2019-02-23T05:46:55.390Z,48.20
2019-02-23T05:49:25.267Z,50.60
2019-02-23T05:51:55.214Z,47.57
2019-02-23T05:54:25.108Z,50.00
2019-02-23T05:56:55.120Z,49.43
2019-02-23T05:59:25.160Z,48.60
2019-02-23T06:01:55.213Z,49.07
2019-02-23T06:04:25.220Z,46.47
2019-02-23T06:06:55.217Z,47.40
2019-02-23T06:09:25.256Z,46.70
2019-02-23T06:11:55.218Z,48.53
2019-02-23T06:14:25.118Z,47.17
2019-02-23T06:16:55.065Z,44.50
2019-02-23T06:19:25.012Z,47.43
2019-02-23T06:21:54.987Z,51.57
2019-02-23T06:24:25.032Z,44.73
2019-02-23T06:26:55.062Z,43.37
2019-02-23T06:29:25.163Z,43.57
2019-02-23T06:31:55.118Z,45.17
2019-02-23T06:34:25.068Z,44.63
2019-02-23T06:36:55.134Z,46.17
2019-02-23T06:39:25.035Z,45.07
2019-02-23T06:41:55.142Z,42.03
2019-02-23T06:44:25.175Z,44.30
2019-02-23T06:46:55.146Z,43.07
2019-02-23T06:49:25.161Z,45.10
2019-02-23T06:52:04.050Z,44.23
2019-02-23T06:54:26.770Z,43.43
2019-02-23T06:56:56.759Z,42.73
2019-02-23T06:59:26.747Z,43.70
2019-02-23T07:01:56.824Z,42.90
2019-02-23T07:04:26.803Z,40.77
2019-02-23T07:06:56.679Z,40.53
2019-02-23T07:09:26.568Z,44.23
2019-02-23T07:11:56.522Z,45.03
2019-02-23T07:14:26.390Z,44.77
2019-02-23T07:16:56.338Z,41.07
2019-02-23T07:19:26.242Z,43.97
2019-02-23T07:21:56.186Z,45.77
2019-02-23T07:24:26.146Z,168.57
2019-02-23T07:26:56.133Z,230.53
2019-02-23T07:29:26.045Z,183.00
2019-02-23T07:31:55.970Z,167.30
2019-02-23T07:34:26.998Z,160.20
2019-02-23T07:36:57.003Z,143.93
2019-02-23T07:39:26.918Z,152.10
2019-02-23T07:41:56.849Z,152.43
2019-02-23T07:44:26.762Z,148.37
2019-02-23T07:46:56.814Z,151.30
2019-02-23T07:49:26.783Z,147.77
2019-02-23T07:51:56.787Z,157.43
2019-02-23T07:54:26.882Z,156.50
2019-02-23T07:56:56.960Z,162.33
2019-02-23T07:59:26.990Z,160.13
2019-02-23T08:01:57.004Z,181.03
2019-02-23T08:04:27.007Z,180.63
2019-02-23T08:06:56.925Z,178.00
2019-02-23T08:09:26.899Z,176.90
2019-02-23T08:11:56.956Z,177.50
2019-02-23T08:14:26.886Z,187.43
2019-02-23T08:16:56.918Z,191.70
2019-02-23T08:19:26.893Z,236.57
2019-02-23T08:21:56.845Z,180.27
2019-02-23T08:24:26.802Z,190.93
2019-02-23T08:26:56.741Z,192.00
2019-02-23T08:29:26.682Z,205.93
2019-02-23T08:31:56.565Z,211.33
2019-02-23T08:34:26.433Z,224.93
2019-02-23T08:36:56.379Z,271.37
2019-02-23T08:39:27.333Z,314.00
2019-02-23T08:41:57.219Z,341.37
2019-02-23T08:44:27.131Z,345.60
2019-02-23T08:46:58.300Z,347.60
2019-02-23T08:49:28.241Z,367.33
2019-02-23T08:51:58.110Z,375.27
2019-02-23T08:54:28.014Z,400.20
2019-02-23T08:56:57.966Z,442.20
2019-02-23T08:59:27.946Z,483.30
2019-02-23T09:01:57.897Z,473.53
2019-02-23T09:04:27.788Z,485.47
2019-02-23T09:06:57.687Z,452.43
2019-02-23T09:09:27.598Z,472.43
2019-02-23T09:11:57.494Z,568.77
2019-02-23T09:14:27.455Z,567.80
2019-02-23T09:16:57.417Z,543.40
2019-02-23T09:19:27.401Z,535.97
2019-02-23T09:21:57.358Z,513.83
2019-02-23T09:24:27.358Z,511.87
2019-02-23T09:26:58.282Z,495.73
2019-02-23T09:29:28.274Z,480.23
2019-02-23T09:31:59.422Z,477.00
2019-02-23T09:34:29.706Z,470.67
2019-02-23T09:36:59.994Z,474.60
2019-02-23T09:39:29.990Z,461.37
2019-02-23T09:42:07.427Z,457.97
2019-02-23T09:44:32.462Z,454.00
2019-02-23T09:47:02.482Z,430.50
2019-02-23T09:49:32.362Z,435.23
2019-02-23T09:52:02.326Z,435.30
2019-02-23T09:54:32.207Z,416.77
2019-02-23T09:57:02.190Z,419.10
2019-02-23T09:59:32.444Z,397.27
2019-02-23T10:02:02.734Z,394.63
2019-02-23T10:04:33.110Z,378.63
2019-02-23T10:07:03.308Z,379.27
2019-02-23T10:09:33.361Z,371.07
2019-02-23T10:12:03.332Z,369.83
2019-02-23T10:14:33.399Z,364.23
2019-02-23T10:17:04.189Z,354.57
2019-02-23T10:19:34.135Z,345.60
2019-02-23T10:22:04.119Z,341.47
